sensor_id;sensor_type;location;lat;lon;timestamp;P1;durP1;ratioP1;P2;durP2;ratioP2
48845;SDS011;34665;51.886;5.436;2024-03-29T00:00:13;5.07;;;1.33;;
48845;SDS011;34665;51.886;5.436;2024-03-29T00:02:38;9.02;;;1.42;;
48845;SDS011;34665;51.886;5.436;2024-03-29T00:05:04;3.37;;;1.10;;
48845;SDS011;34665;51.886;5.436;2024-03-29T00:07:29;2.65;;;1.05;;
48845;SDS011;34665;51.886;5.436;2024-03-29T00:09:55;8.67;;;1.77;;
48845;SDS011;34665;51.886;5.436;2024-03-29T00:12:20;4.93;;;1.30;;
48845;SDS011;34665;51.886;5.436;2024-03-29T00:14:45;4.80;;;1.30;;
48845;SDS011;34665;51.886;5.436;2024-03-29T00:17:12;8.23;;;1.77;;
48845;SDS011;34665;51.886;5.436;2024-03-29T00:19:38;3.50;;;0.90;;
48845;SDS011;34665;51.886;5.436;2024-03-29T00:22:03;3.80;;;1.20;;
48845;SDS011;34665;51.886;5.436;2024-03-29T00:24:29;6.03;;;1.20;;
48845;SDS011;34665;51.886;5.436;2024-03-29T00:26:54;4.80;;;1.00;;
48845;SDS011;34665;51.886;5.436;2024-03-29T00:29:20;7.33;;;1.40;;
48845;SDS011;34665;51.886;5.436;2024-03-29T00:31:45;11.40;;;1.20;;
48845;SDS011;34665;51.886;5.436;2024-03-29T00:34:10;6.90;;;1.00;;
48845;SDS011;34665;51.886;5.436;2024-03-29T00:36:36;7.80;;;1.10;;
48845;SDS011;34665;51.886;5.436;2024-03-29T00:39:01;9.13;;;1.63;;
48845;SDS011;34665;51.886;5.436;2024-03-29T00:41:27;4.43;;;1.03;;
48845;SDS011;34665;51.886;5.436;2024-03-29T00:43:52;6.87;;;1.03;;
48845;SDS011;34665;51.886;5.436;2024-03-29T00:46:18;2.95;;;1.00;;
48845;SDS011;34665;51.886;5.436;2024-03-29T00:48:43;6.07;;;1.00;;
48845;SDS011;34665;51.886;5.436;2024-03-29T00:51:11;8.23;;;1.73;;
48845;SDS011;34665;51.886;5.436;2024-03-29T00:53:37;7.87;;;1.27;;
48845;SDS011;34665;51.886;5.436;2024-03-29T00:56:02;7.13;;;1.00;;
48845;SDS011;34665;51.886;5.436;2024-03-29T00:58:27;8.87;;;1.17;;
48845;SDS011;34665;51.886;5.436;2024-03-29T01:00:53;4.97;;;1.07;;
48845;SDS011;34665;51.886;5.436;2024-03-29T01:03:18;4.73;;;1.00;;
48845;SDS011;34665;51.886;5.436;2024-03-29T01:05:44;3.43;;;1.10;;
48845;SDS011;34665;51.886;5.436;2024-03-29T01:08:09;5.70;;;1.35;;
48845;SDS011;34665;51.886;5.436;2024-03-29T01:10:35;4.93;;;1.10;;
48845;SDS011;34665;51.886;5.436;2024-03-29T01:13:00;4.40;;;1.33;;
48845;SDS011;34665;51.886;5.436;2024-03-29T01:15:26;3.60;;;0.90;;
48845;SDS011;34665;51.886;5.436;2024-03-29T01:17:51;4.32;;;0.90;;
48845;SDS011;34665;51.886;5.436;2024-03-29T01:20:17;2.60;;;1.10;;
48845;SDS011;34665;51.886;5.436;2024-03-29T01:22:42;4.83;;;0.90;;
48845;SDS011;34665;51.886;5.436;2024-03-29T01:25:07;10.03;;;1.53;;
48845;SDS011;34665;51.886;5.436;2024-03-29T01:27:34;5.63;;;1.10;;
48845;SDS011;34665;51.886;5.436;2024-03-29T01:30:00;3.47;;;0.93;;
48845;SDS011;34665;51.886;5.436;2024-03-29T01:32:25;4.80;;;1.10;;
48845;SDS011;34665;51.886;5.436;2024-03-29T01:34:51;6.83;;;1.17;;
48845;SDS011;34665;51.886;5.436;2024-03-29T01:37:17;2.38;;;1.10;;
48845;SDS011;34665;51.886;5.436;2024-03-29T01:39:42;4.70;;;1.33;;
48845;SDS011;34665;51.886;5.436;2024-03-29T01:42:08;6.60;;;1.20;;
48845;SDS011;34665;51.886;5.436;2024-03-29T01:44:33;11.13;;;1.80;;
48845;SDS011;34665;51.886;5.436;2024-03-29T01:46:59;8.50;;;1.57;;
48845;SDS011;34665;51.886;5.436;2024-03-29T01:49:24;3.63;;;1.00;;
48845;SDS011;34665;51.886;5.436;2024-03-29T01:51:51;2.80;;;1.02;;
48845;SDS011;34665;51.886;5.436;2024-03-29T01:54:16;4.88;;;1.00;;
48845;SDS011;34665;51.886;5.436;2024-03-29T01:56:42;3.72;;;1.13;;
48845;SDS011;34665;51.886;5.436;2024-03-29T01:59:10;4.93;;;1.13;;
48845;SDS011;34665;51.886;5.436;2024-03-29T02:01:38;3.47;;;1.60;;
48845;SDS011;34665;51.886;5.436;2024-03-29T02:04:05;2.57;;;1.00;;
48845;SDS011;34665;51.886;5.436;2024-03-29T02:06:30;3.43;;;1.30;;
48845;SDS011;34665;51.886;5.436;2024-03-29T02:08:55;3.57;;;1.00;;
48845;SDS011;34665;51.886;5.436;2024-03-29T02:11:21;8.83;;;1.63;;
48845;SDS011;34665;51.886;5.436;2024-03-29T02:13:47;18.75;;;1.67;;
48845;SDS011;34665;51.886;5.436;2024-03-29T02:16:13;3.15;;;1.27;;
48845;SDS011;34665;51.886;5.436;2024-03-29T02:18:38;4.40;;;1.13;;
48845;SDS011;34665;51.886;5.436;2024-03-29T02:21:04;5.35;;;0.80;;
48845;SDS011;34665;51.886;5.436;2024-03-29T02:23:32;6.70;;;0.90;;
48845;SDS011;34665;51.886;5.436;2024-03-29T02:25:58;5.63;;;1.17;;
48845;SDS011;34665;51.886;5.436;2024-03-29T02:28:23;7.00;;;1.10;;
48845;SDS011;34665;51.886;5.436;2024-03-29T02:30:49;4.50;;;1.57;;
48845;SDS011;34665;51.886;5.436;2024-03-29T02:33:14;3.60;;;0.87;;
48845;SDS011;34665;51.886;5.436;2024-03-29T02:35:40;1.92;;;1.13;;
48845;SDS011;34665;51.886;5.436;2024-03-29T02:38:05;6.27;;;1.10;;
48845;SDS011;34665;51.886;5.436;2024-03-29T02:40:31;7.25;;;1.10;;
48845;SDS011;34665;51.886;5.436;2024-03-29T02:42:56;5.03;;;1.00;;
48845;SDS011;34665;51.886;5.436;2024-03-29T02:45:22;8.10;;;1.00;;
48845;SDS011;34665;51.886;5.436;2024-03-29T02:47:47;8.70;;;1.30;;
48845;SDS011;34665;51.886;5.436;2024-03-29T02:50:13;8.17;;;1.30;;
48845;SDS011;34665;51.886;5.436;2024-03-29T02:52:39;6.70;;;0.85;;
48845;SDS011;34665;51.886;5.436;2024-03-29T02:55:04;3.60;;;1.43;;
48845;SDS011;34665;51.886;5.436;2024-03-29T02:57:30;3.97;;;1.30;;
48845;SDS011;34665;51.886;5.436;2024-03-29T02:59:55;4.28;;;0.80;;
48845;SDS011;34665;51.886;5.436;2024-03-29T03:02:21;3.00;;;1.20;;
48845;SDS011;34665;51.886;5.436;2024-03-29T03:04:46;5.40;;;0.97;;
48845;SDS011;34665;51.886;5.436;2024-03-29T03:07:12;4.75;;;1.15;;
48845;SDS011;34665;51.886;5.436;2024-03-29T03:09:56;8.03;;;1.40;;
48845;SDS011;34665;51.886;5.436;2024-03-29T03:12:40;7.30;;;1.27;;
48845;SDS011;34665;51.886;5.436;2024-03-29T03:15:05;4.77;;;0.87;;
48845;SDS011;34665;51.886;5.436;2024-03-29T03:17:31;7.90;;;0.90;;
48845;SDS011;34665;51.886;5.436;2024-03-29T03:19:57;2.58;;;0.98;;
48845;SDS011;34665;51.886;5.436;2024-03-29T03:22:22;11.30;;;1.07;;
48845;SDS011;34665;51.886;5.436;2024-03-29T03:24:47;5.13;;;0.90;;
48845;SDS011;34665;51.886;5.436;2024-03-29T03:27:13;2.70;;;0.98;;
48845;SDS011;34665;51.886;5.436;2024-03-29T03:29:39;3.25;;;0.95;;
48845;SDS011;34665;51.886;5.436;2024-03-29T03:32:05;3.38;;;1.10;;
48845;SDS011;34665;51.886;5.436;2024-03-29T03:34:30;2.03;;;0.90;;
48845;SDS011;34665;51.886;5.436;2024-03-29T03:36:56;6.67;;;0.97;;
48845;SDS011;34665;51.886;5.436;2024-03-29T03:39:21;4.80;;;0.80;;
48845;SDS011;34665;51.886;5.436;2024-03-29T03:41:47;8.63;;;1.80;;
48845;SDS011;34665;51.886;5.436;2024-03-29T03:44:12;2.57;;;1.10;;
48845;SDS011;34665;51.886;5.436;2024-03-29T03:46:38;1.80;;;0.88;;
48845;SDS011;34665;51.886;5.436;2024-03-29T03:49:03;3.97;;;0.90;;
48845;SDS011;34665;51.886;5.436;2024-03-29T03:51:29;2.95;;;0.65;;
48845;SDS011;34665;51.886;5.436;2024-03-29T03:53:54;3.53;;;0.85;;
48845;SDS011;34665;51.886;5.436;2024-03-29T03:56:20;7.00;;;1.10;;
48845;SDS011;34665;51.886;5.436;2024-03-29T03:58:45;2.10;;;0.70;;
48845;SDS011;34665;51.886;5.436;2024-03-29T04:01:11;5.47;;;2.00;;
48845;SDS011;34665;51.886;5.436;2024-03-29T04:03:36;3.65;;;0.70;;
48845;SDS011;34665;51.886;5.436;2024-03-29T04:06:05;1.50;;;0.52;;
48845;SDS011;34665;51.886;5.436;2024-03-29T04:08:32;1.33;;;0.40;;
48845;SDS011;34665;51.886;5.436;2024-03-29T04:10:57;2.75;;;0.85;;
48845;SDS011;34665;51.886;5.436;2024-03-29T04:13:22;1.77;;;0.90;;
48845;SDS011;34665;51.886;5.436;2024-03-29T04:15:47;3.13;;;1.10;;
48845;SDS011;34665;51.886;5.436;2024-03-29T04:18:14;4.28;;;1.00;;
48845;SDS011;34665;51.886;5.436;2024-03-29T04:20:39;4.63;;;0.93;;
48845;SDS011;34665;51.886;5.436;2024-03-29T04:23:05;9.13;;;1.47;;
48845;SDS011;34665;51.886;5.436;2024-03-29T04:25:31;6.35;;;0.90;;
48845;SDS011;34665;51.886;5.436;2024-03-29T04:27:57;4.40;;;1.20;;
48845;SDS011;34665;51.886;5.436;2024-03-29T04:30:22;2.67;;;0.73;;
48845;SDS011;34665;51.886;5.436;2024-03-29T04:35:13;1.48;;;0.73;;
48845;SDS011;34665;51.886;5.436;2024-03-29T04:37:39;2.92;;;1.20;;
48845;SDS011;34665;51.886;5.436;2024-03-29T04:40:05;2.70;;;0.60;;
48845;SDS011;34665;51.886;5.436;2024-03-29T04:42:31;9.55;;;1.10;;
48845;SDS011;34665;51.886;5.436;2024-03-29T04:44:57;3.33;;;0.80;;
48845;SDS011;34665;51.886;5.436;2024-03-29T04:47:22;1.50;;;0.73;;
48845;SDS011;34665;51.886;5.436;2024-03-29T04:49:47;8.63;;;0.80;;
48845;SDS011;34665;51.886;5.436;2024-03-29T04:52:12;1.40;;;0.80;;
48845;SDS011;34665;51.886;5.436;2024-03-29T04:54:39;7.13;;;1.15;;
48845;SDS011;34665;51.886;5.436;2024-03-29T04:57:04;2.40;;;0.90;;
48845;SDS011;34665;51.886;5.436;2024-03-29T04:59:32;7.20;;;0.83;;
48845;SDS011;34665;51.886;5.436;2024-03-29T05:01:58;2.95;;;0.98;;
48845;SDS011;34665;51.886;5.436;2024-03-29T05:04:24;3.95;;;0.85;;
48845;SDS011;34665;51.886;5.436;2024-03-29T05:06:56;2.25;;;0.70;;
48845;SDS011;34665;51.886;5.436;2024-03-29T05:09:22;2.00;;;0.80;;
48845;SDS011;34665;51.886;5.436;2024-03-29T05:11:47;5.57;;;0.82;;
48845;SDS011;34665;51.886;5.436;2024-03-29T05:14:17;6.32;;;0.85;;
48845;SDS011;34665;51.886;5.436;2024-03-29T05:16:47;5.60;;;1.40;;
48845;SDS011;34665;51.886;5.436;2024-03-29T05:19:13;3.83;;;1.80;;
48845;SDS011;34665;51.886;5.436;2024-03-29T05:21:39;10.57;;;1.13;;
48845;SDS011;34665;51.886;5.436;2024-03-29T05:24:05;6.80;;;2.08;;
48845;SDS011;34665;51.886;5.436;2024-03-29T05:26:30;6.40;;;1.17;;
48845;SDS011;34665;51.886;5.436;2024-03-29T05:28:56;3.00;;;1.03;;
48845;SDS011;34665;51.886;5.436;2024-03-29T05:31:23;5.15;;;0.88;;
48845;SDS011;34665;51.886;5.436;2024-03-29T05:33:49;2.92;;;1.10;;
48845;SDS011;34665;51.886;5.436;2024-03-29T05:36:15;4.40;;;1.83;;
48845;SDS011;34665;51.886;5.436;2024-03-29T05:38:40;5.93;;;1.40;;
48845;SDS011;34665;51.886;5.436;2024-03-29T05:41:06;2.38;;;0.90;;
48845;SDS011;34665;51.886;5.436;2024-03-29T05:43:31;6.97;;;1.20;;
48845;SDS011;34665;51.886;5.436;2024-03-29T05:45:57;2.17;;;1.00;;
48845;SDS011;34665;51.886;5.436;2024-03-29T05:48:22;4.18;;;1.20;;
48845;SDS011;34665;51.886;5.436;2024-03-29T05:50:47;5.33;;;1.23;;
48845;SDS011;34665;51.886;5.436;2024-03-29T05:53:13;3.72;;;1.08;;
48845;SDS011;34665;51.886;5.436;2024-03-29T05:55:39;2.63;;;1.03;;
48845;SDS011;34665;51.886;5.436;2024-03-29T05:58:04;5.07;;;1.20;;
48845;SDS011;34665;51.886;5.436;2024-03-29T06:00:31;6.57;;;1.42;;
48845;SDS011;34665;51.886;5.436;2024-03-29T06:03:00;2.63;;;0.82;;
48845;SDS011;34665;51.886;5.436;2024-03-29T06:05:28;2.45;;;0.93;;
48845;SDS011;34665;51.886;5.436;2024-03-29T06:07:53;4.83;;;1.50;;
48845;SDS011;34665;51.886;5.436;2024-03-29T06:10:19;4.63;;;0.87;;
48845;SDS011;34665;51.886;5.436;2024-03-29T06:12:44;3.83;;;1.23;;
48845;SDS011;34665;51.886;5.436;2024-03-29T06:15:10;3.93;;;1.53;;
48845;SDS011;34665;51.886;5.436;2024-03-29T06:17:55;7.97;;;1.17;;
48845;SDS011;34665;51.886;5.436;2024-03-29T06:20:20;5.77;;;1.13;;
48845;SDS011;34665;51.886;5.436;2024-03-29T06:22:46;4.40;;;1.03;;
48845;SDS011;34665;51.886;5.436;2024-03-29T06:25:12;6.35;;;1.30;;
48845;SDS011;34665;51.886;5.436;2024-03-29T06:27:37;5.22;;;1.45;;
48845;SDS011;34665;51.886;5.436;2024-03-29T06:30:03;3.73;;;1.20;;
48845;SDS011;34665;51.886;5.436;2024-03-29T06:32:30;4.72;;;1.33;;
48845;SDS011;34665;51.886;5.436;2024-03-29T06:37:21;1.63;;;1.00;;
48845;SDS011;34665;51.886;5.436;2024-03-29T06:39:47;2.03;;;1.35;;
48845;SDS011;34665;51.886;5.436;2024-03-29T06:42:13;3.47;;;1.20;;
48845;SDS011;34665;51.886;5.436;2024-03-29T06:44:39;5.78;;;1.13;;
48845;SDS011;34665;51.886;5.436;2024-03-29T06:47:04;11.47;;;1.73;;
48845;SDS011;34665;51.886;5.436;2024-03-29T06:49:30;5.45;;;1.48;;
48845;SDS011;34665;51.886;5.436;2024-03-29T06:51:58;6.05;;;1.10;;
48845;SDS011;34665;51.886;5.436;2024-03-29T06:54:25;2.15;;;1.10;;
48845;SDS011;34665;51.886;5.436;2024-03-29T06:56:52;3.50;;;1.65;;
48845;SDS011;34665;51.886;5.436;2024-03-29T06:59:18;2.70;;;1.13;;
48845;SDS011;34665;51.886;5.436;2024-03-29T07:01:43;2.10;;;1.20;;
48845;SDS011;34665;51.886;5.436;2024-03-29T07:04:09;5.82;;;1.30;;
48845;SDS011;34665;51.886;5.436;2024-03-29T07:06:34;4.13;;;1.60;;
48845;SDS011;34665;51.886;5.436;2024-03-29T07:09:02;4.13;;;1.40;;
48845;SDS011;34665;51.886;5.436;2024-03-29T07:11:28;8.02;;;1.60;;
48845;SDS011;34665;51.886;5.436;2024-03-29T07:13:54;4.82;;;1.30;;
48845;SDS011;34665;51.886;5.436;2024-03-29T07:16:19;3.17;;;1.47;;
48845;SDS011;34665;51.886;5.436;2024-03-29T07:18:45;8.15;;;1.60;;
48845;SDS011;34665;51.886;5.436;2024-03-29T07:21:10;4.30;;;1.47;;
48845;SDS011;34665;51.886;5.436;2024-03-29T07:23:35;6.57;;;1.30;;
48845;SDS011;34665;51.886;5.436;2024-03-29T07:26:01;5.10;;;1.40;;
48845;SDS011;34665;51.886;5.436;2024-03-29T07:28:27;3.63;;;1.20;;
48845;SDS011;34665;51.886;5.436;2024-03-29T07:30:53;2.92;;;1.30;;
48845;SDS011;34665;51.886;5.436;2024-03-29T07:33:20;5.55;;;1.60;;
48845;SDS011;34665;51.886;5.436;2024-03-29T07:35:48;4.82;;;1.63;;
48845;SDS011;34665;51.886;5.436;2024-03-29T07:38:14;6.23;;;2.07;;
48845;SDS011;34665;51.886;5.436;2024-03-29T07:40:42;6.70;;;1.70;;
48845;SDS011;34665;51.886;5.436;2024-03-29T07:43:07;3.77;;;1.63;;
48845;SDS011;34665;51.886;5.436;2024-03-29T07:45:32;6.57;;;1.60;;
48845;SDS011;34665;51.886;5.436;2024-03-29T07:47:58;9.23;;;1.80;;
48845;SDS011;34665;51.886;5.436;2024-03-29T07:50:24;3.75;;;1.85;;
48845;SDS011;34665;51.886;5.436;2024-03-29T07:52:50;3.95;;;1.75;;
48845;SDS011;34665;51.886;5.436;2024-03-29T07:55:16;3.53;;;1.98;;
48845;SDS011;34665;51.886;5.436;2024-03-29T07:57:41;3.03;;;1.40;;
48845;SDS011;34665;51.886;5.436;2024-03-29T08:00:07;3.17;;;1.50;;
48845;SDS011;34665;51.886;5.436;2024-03-29T08:02:33;3.53;;;1.77;;
48845;SDS011;34665;51.886;5.436;2024-03-29T08:04:58;4.43;;;1.47;;
48845;SDS011;34665;51.886;5.436;2024-03-29T08:07:24;4.87;;;1.73;;
48845;SDS011;34665;51.886;5.436;2024-03-29T08:09:49;7.33;;;1.73;;
48845;SDS011;34665;51.886;5.436;2024-03-29T08:12:15;4.97;;;3.05;;
48845;SDS011;34665;51.886;5.436;2024-03-29T08:14:41;6.47;;;1.90;;
48845;SDS011;34665;51.886;5.436;2024-03-29T08:17:06;3.80;;;1.90;;
48845;SDS011;34665;51.886;5.436;2024-03-29T08:19:34;5.33;;;2.20;;
48845;SDS011;34665;51.886;5.436;2024-03-29T08:21:59;6.13;;;2.30;;
48845;SDS011;34665;51.886;5.436;2024-03-29T08:24:26;4.32;;;1.70;;
48845;SDS011;34665;51.886;5.436;2024-03-29T08:26:51;3.85;;;1.83;;
48845;SDS011;34665;51.886;5.436;2024-03-29T08:29:17;7.33;;;2.10;;
48845;SDS011;34665;51.886;5.436;2024-03-29T08:31:42;7.93;;;1.90;;
48845;SDS011;34665;51.886;5.436;2024-03-29T08:34:08;7.97;;;2.35;;
48845;SDS011;34665;51.886;5.436;2024-03-29T08:36:36;4.27;;;1.87;;
48845;SDS011;34665;51.886;5.436;2024-03-29T08:39:01;7.90;;;2.27;;
48845;SDS011;34665;51.886;5.436;2024-03-29T08:41:27;3.72;;;2.17;;
48845;SDS011;34665;51.886;5.436;2024-03-29T08:43:53;4.45;;;2.00;;
48845;SDS011;34665;51.886;5.436;2024-03-29T08:46:18;5.00;;;2.13;;
48845;SDS011;34665;51.886;5.436;2024-03-29T08:48:43;2.00;;;1.47;;
48845;SDS011;34665;51.886;5.436;2024-03-29T08:51:09;6.75;;;1.52;;
48845;SDS011;34665;51.886;5.436;2024-03-29T08:53:35;2.93;;;1.63;;
48845;SDS011;34665;51.886;5.436;2024-03-29T08:56:00;6.33;;;2.00;;
48845;SDS011;34665;51.886;5.436;2024-03-29T08:58:26;5.80;;;2.17;;
48845;SDS011;34665;51.886;5.436;2024-03-29T09:00:52;4.67;;;1.20;;
48845;SDS011;34665;51.886;5.436;2024-03-29T09:03:18;6.63;;;1.73;;
48845;SDS011;34665;51.886;5.436;2024-03-29T09:05:43;6.10;;;1.67;;
48845;SDS011;34665;51.886;5.436;2024-03-29T09:08:08;3.07;;;1.60;;
48845;SDS011;34665;51.886;5.436;2024-03-29T09:10:33;4.13;;;1.23;;
48845;SDS011;34665;51.886;5.436;2024-03-29T09:13:00;8.73;;;1.92;;
48845;SDS011;34665;51.886;5.436;2024-03-29T09:15:25;4.47;;;2.00;;
48845;SDS011;34665;51.886;5.436;2024-03-29T09:17:51;5.25;;;2.03;;
48845;SDS011;34665;51.886;5.436;2024-03-29T09:20:20;3.43;;;1.60;;
48845;SDS011;34665;51.886;5.436;2024-03-29T09:22:46;4.87;;;1.50;;
48845;SDS011;34665;51.886;5.436;2024-03-29T09:25:14;3.50;;;1.50;;
48845;SDS011;34665;51.886;5.436;2024-03-29T09:27:40;4.53;;;1.33;;
48845;SDS011;34665;51.886;5.436;2024-03-29T09:30:09;1.70;;;1.10;;
48845;SDS011;34665;51.886;5.436;2024-03-29T09:32:35;2.77;;;1.40;;
48845;SDS011;34665;51.886;5.436;2024-03-29T09:35:01;8.40;;;1.10;;
48845;SDS011;34665;51.886;5.436;2024-03-29T09:37:26;5.50;;;1.35;;
48845;SDS011;34665;51.886;5.436;2024-03-29T09:39:52;2.70;;;1.58;;
48845;SDS011;34665;51.886;5.436;2024-03-29T09:42:17;1.90;;;1.00;;
48845;SDS011;34665;51.886;5.436;2024-03-29T09:44:45;1.90;;;1.03;;
48845;SDS011;34665;51.886;5.436;2024-03-29T09:47:11;4.38;;;1.67;;
48845;SDS011;34665;51.886;5.436;2024-03-29T09:49:39;3.47;;;2.10;;
48845;SDS011;34665;51.886;5.436;2024-03-29T09:52:06;2.13;;;1.23;;
48845;SDS011;34665;51.886;5.436;2024-03-29T09:54:33;3.80;;;1.27;;
48845;SDS011;34665;51.886;5.436;2024-03-29T09:56:59;2.13;;;1.33;;
48845;SDS011;34665;51.886;5.436;2024-03-29T09:59:24;4.90;;;1.48;;
48845;SDS011;34665;51.886;5.436;2024-03-29T10:01:54;2.77;;;1.40;;
48845;SDS011;34665;51.886;5.436;2024-03-29T10:04:20;2.77;;;1.47;;
48845;SDS011;34665;51.886;5.436;2024-03-29T10:06:47;2.73;;;1.53;;
48845;SDS011;34665;51.886;5.436;2024-03-29T10:09:18;5.07;;;2.00;;
48845;SDS011;34665;51.886;5.436;2024-03-29T10:11:45;3.90;;;1.63;;
48845;SDS011;34665;51.886;5.436;2024-03-29T10:14:11;4.63;;;1.70;;
48845;SDS011;34665;51.886;5.436;2024-03-29T10:16:37;2.03;;;1.70;;
48845;SDS011;34665;51.886;5.436;2024-03-29T10:19:03;2.60;;;1.20;;
48845;SDS011;34665;51.886;5.436;2024-03-29T10:21:28;3.08;;;1.27;;
48845;SDS011;34665;51.886;5.436;2024-03-29T10:23:54;3.03;;;1.65;;
48845;SDS011;34665;51.886;5.436;2024-03-29T10:28:46;6.03;;;1.70;;
48845;SDS011;34665;51.886;5.436;2024-03-29T10:33:39;4.15;;;1.40;;
48845;SDS011;34665;51.886;5.436;2024-03-29T10:36:04;2.93;;;1.50;;
48845;SDS011;34665;51.886;5.436;2024-03-29T10:38:30;3.05;;;1.58;;
48845;SDS011;34665;51.886;5.436;2024-03-29T10:40:55;2.75;;;1.42;;
48845;SDS011;34665;51.886;5.436;2024-03-29T10:43:21;2.88;;;1.45;;
48845;SDS011;34665;51.886;5.436;2024-03-29T10:45:47;2.45;;;1.10;;
48845;SDS011;34665;51.886;5.436;2024-03-29T10:48:14;3.90;;;1.47;;
48845;SDS011;34665;51.886;5.436;2024-03-29T10:50:40;5.93;;;2.20;;
48845;SDS011;34665;51.886;5.436;2024-03-29T10:53:07;5.23;;;2.30;;
48845;SDS011;34665;51.886;5.436;2024-03-29T10:58:03;4.33;;;1.60;;
48845;SDS011;34665;51.886;5.436;2024-03-29T11:00:30;2.93;;;1.70;;
48845;SDS011;34665;51.886;5.436;2024-03-29T11:05:29;6.30;;;1.70;;
48845;SDS011;34665;51.886;5.436;2024-03-29T11:07:55;3.30;;;1.20;;
48845;SDS011;34665;51.886;5.436;2024-03-29T11:10:29;4.38;;;1.60;;
48845;SDS011;34665;51.886;5.436;2024-03-29T11:12:59;3.93;;;1.90;;
48845;SDS011;34665;51.886;5.436;2024-03-29T11:15:29;2.27;;;1.07;;
48845;SDS011;34665;51.886;5.436;2024-03-29T11:17:55;5.03;;;1.27;;
48845;SDS011;34665;51.886;5.436;2024-03-29T11:22:50;3.27;;;1.10;;
48845;SDS011;34665;51.886;5.436;2024-03-29T11:27:41;2.97;;;1.30;;
48845;SDS011;34665;51.886;5.436;2024-03-29T11:30:06;3.57;;;1.17;;
48845;SDS011;34665;51.886;5.436;2024-03-29T11:32:35;2.35;;;1.05;;
48845;SDS011;34665;51.886;5.436;2024-03-29T11:35:04;3.10;;;1.27;;
48845;SDS011;34665;51.886;5.436;2024-03-29T11:39:55;1.63;;;0.80;;
48845;SDS011;34665;51.886;5.436;2024-03-29T11:42:35;3.72;;;1.55;;
48845;SDS011;34665;51.886;5.436;2024-03-29T11:45:00;2.00;;;1.20;;
48845;SDS011;34665;51.886;5.436;2024-03-29T11:47:26;2.03;;;0.88;;
48845;SDS011;34665;51.886;5.436;2024-03-29T11:52:18;2.27;;;0.90;;
48845;SDS011;34665;51.886;5.436;2024-03-29T11:54:43;3.10;;;1.50;;
48845;SDS011;34665;51.886;5.436;2024-03-29T11:57:09;3.47;;;1.23;;
48845;SDS011;34665;51.886;5.436;2024-03-29T11:59:34;5.00;;;1.17;;
48845;SDS011;34665;51.886;5.436;2024-03-29T12:01:59;3.70;;;0.90;;
48845;SDS011;34665;51.886;5.436;2024-03-29T12:04:24;1.83;;;1.35;;
48845;SDS011;34665;51.886;5.436;2024-03-29T12:06:50;3.63;;;1.40;;
48845;SDS011;34665;51.886;5.436;2024-03-29T12:09:15;4.35;;;1.00;;
48845;SDS011;34665;51.886;5.436;2024-03-29T12:11:43;2.70;;;1.23;;
48845;SDS011;34665;51.886;5.436;2024-03-29T12:14:12;7.30;;;1.50;;
48845;SDS011;34665;51.886;5.436;2024-03-29T12:16:46;4.93;;;1.20;;
48845;SDS011;34665;51.886;5.436;2024-03-29T12:19:23;2.83;;;1.00;;
48845;SDS011;34665;51.886;5.436;2024-03-29T12:21:50;4.33;;;1.37;;
48845;SDS011;34665;51.886;5.436;2024-03-29T12:24:15;5.77;;;1.20;;
48845;SDS011;34665;51.886;5.436;2024-03-29T12:26:41;4.57;;;1.45;;
48845;SDS011;34665;51.886;5.436;2024-03-29T12:29:06;3.03;;;1.20;;
48845;SDS011;34665;51.886;5.436;2024-03-29T12:31:31;3.37;;;0.90;;
48845;SDS011;34665;51.886;5.436;2024-03-29T12:33:57;2.67;;;1.10;;
48845;SDS011;34665;51.886;5.436;2024-03-29T12:36:24;3.63;;;1.30;;
48845;SDS011;34665;51.886;5.436;2024-03-29T12:38:53;4.43;;;1.10;;
48845;SDS011;34665;51.886;5.436;2024-03-29T12:41:23;4.10;;;1.50;;
48845;SDS011;34665;51.886;5.436;2024-03-29T12:43:50;3.67;;;1.30;;
48845;SDS011;34665;51.886;5.436;2024-03-29T12:48:41;3.17;;;1.07;;
48845;SDS011;34665;51.886;5.436;2024-03-29T12:51:06;6.47;;;1.05;;
48845;SDS011;34665;51.886;5.436;2024-03-29T12:55:58;3.23;;;1.10;;
48845;SDS011;34665;51.886;5.436;2024-03-29T12:58:24;3.60;;;1.33;;
48845;SDS011;34665;51.886;5.436;2024-03-29T13:00:49;3.25;;;0.95;;
48845;SDS011;34665;51.886;5.436;2024-03-29T13:03:15;3.50;;;1.27;;
48845;SDS011;34665;51.886;5.436;2024-03-29T13:08:07;0.80;;;0.80;;
48845;SDS011;34665;51.886;5.436;2024-03-29T13:10:34;3.23;;;1.20;;
48845;SDS011;34665;51.886;5.436;2024-03-29T13:13:00;3.00;;;1.40;;
48845;SDS011;34665;51.886;5.436;2024-03-29T13:15:26;4.72;;;1.40;;
48845;SDS011;34665;51.886;5.436;2024-03-29T13:17:53;1.47;;;0.77;;
48845;SDS011;34665;51.886;5.436;2024-03-29T13:20:19;2.57;;;1.00;;
48845;SDS011;34665;51.886;5.436;2024-03-29T13:22:45;1.42;;;0.85;;
48845;SDS011;34665;51.886;5.436;2024-03-29T13:25:18;5.67;;;1.00;;
48845;SDS011;34665;51.886;5.436;2024-03-29T13:27:44;2.80;;;0.97;;
48845;SDS011;34665;51.886;5.436;2024-03-29T13:30:10;2.50;;;1.20;;
48845;SDS011;34665;51.886;5.436;2024-03-29T13:32:36;2.30;;;1.00;;
48845;SDS011;34665;51.886;5.436;2024-03-29T13:35:03;6.40;;;1.00;;
48845;SDS011;34665;51.886;5.436;2024-03-29T13:37:41;7.40;;;1.00;;
48845;SDS011;34665;51.886;5.436;2024-03-29T13:40:08;3.57;;;0.57;;
48845;SDS011;34665;51.886;5.436;2024-03-29T13:42:35;2.60;;;0.83;;
48845;SDS011;34665;51.886;5.436;2024-03-29T13:45:00;2.10;;;0.65;;
48845;SDS011;34665;51.886;5.436;2024-03-29T13:49:51;0.90;;;0.47;;
48845;SDS011;34665;51.886;5.436;2024-03-29T13:52:18;1.70;;;0.40;;
48845;SDS011;34665;51.886;5.436;2024-03-29T13:54:44;2.20;;;0.50;;
48845;SDS011;34665;51.886;5.436;2024-03-29T13:57:14;1.73;;;0.50;;
48845;SDS011;34665;51.886;5.436;2024-03-29T13:59:39;1.77;;;0.60;;
48845;SDS011;34665;51.886;5.436;2024-03-29T14:02:08;3.07;;;0.60;;
48845;SDS011;34665;51.886;5.436;2024-03-29T14:04:33;2.15;;;0.88;;
48845;SDS011;34665;51.886;5.436;2024-03-29T14:06:59;1.98;;;0.70;;
48845;SDS011;34665;51.886;5.436;2024-03-29T14:09:24;0.80;;;0.30;;
48845;SDS011;34665;51.886;5.436;2024-03-29T14:11:50;1.00;;;0.40;;
48845;SDS011;34665;51.886;5.436;2024-03-29T14:14:15;1.80;;;0.47;;
48845;SDS011;34665;51.886;5.436;2024-03-29T14:16:41;0.73;;;0.70;;
48845;SDS011;34665;51.886;5.436;2024-03-29T14:19:06;1.07;;;0.40;;
48845;SDS011;34665;51.886;5.436;2024-03-29T14:21:32;0.87;;;0.43;;
48845;SDS011;34665;51.886;5.436;2024-03-29T14:23:57;1.67;;;0.70;;
48845;SDS011;34665;51.886;5.436;2024-03-29T14:26:23;0.60;;;0.45;;
48845;SDS011;34665;51.886;5.436;2024-03-29T14:28:48;3.67;;;0.73;;
48845;SDS011;34665;51.886;5.436;2024-03-29T14:31:14;1.23;;;0.40;;
48845;SDS011;34665;51.886;5.436;2024-03-29T14:33:39;0.82;;;0.70;;
48845;SDS011;34665;51.886;5.436;2024-03-29T14:36:05;2.72;;;0.60;;
48845;SDS011;34665;51.886;5.436;2024-03-29T14:38:30;1.38;;;0.55;;
48845;SDS011;34665;51.886;5.436;2024-03-29T14:40:56;1.05;;;0.80;;
48845;SDS011;34665;51.886;5.436;2024-03-29T14:43:21;1.85;;;0.60;;
48845;SDS011;34665;51.886;5.436;2024-03-29T14:45:49;2.90;;;0.88;;
48845;SDS011;34665;51.886;5.436;2024-03-29T14:48:17;2.63;;;0.87;;
48845;SDS011;34665;51.886;5.436;2024-03-29T14:50:43;4.03;;;1.73;;
48845;SDS011;34665;51.886;5.436;2024-03-29T14:53:09;3.38;;;1.10;;
48845;SDS011;34665;51.886;5.436;2024-03-29T14:55:34;4.10;;;1.48;;
48845;SDS011;34665;51.886;5.436;2024-03-29T14:58:05;1.67;;;0.87;;
48845;SDS011;34665;51.886;5.436;2024-03-29T15:00:30;2.53;;;0.70;;
48845;SDS011;34665;51.886;5.436;2024-03-29T15:02:56;1.05;;;0.73;;
48845;SDS011;34665;51.886;5.436;2024-03-29T15:05:21;1.23;;;0.70;;
48845;SDS011;34665;51.886;5.436;2024-03-29T15:07:47;5.72;;;0.80;;
48845;SDS011;34665;51.886;5.436;2024-03-29T15:10:12;1.05;;;0.80;;
48845;SDS011;34665;51.886;5.436;2024-03-29T15:12:39;2.23;;;0.73;;
48845;SDS011;34665;51.886;5.436;2024-03-29T15:15:05;3.03;;;1.15;;